Arecibo, Puerto Rico
Current Conditions -  °F | °C
As of 7:50 PM on Monday 24 Nov 2014 (Local Time) from TJBQ Reporting Station
Broken Clouds Broken Clouds  
Wind Chill: 25°   Ceiling: 2200
Heat Index: 26°   Visibility: 10mi
Dew Point: 23°   Wind: 9mph
Humidity: 89%   Direction: 90°E
Pressure: 30.05"   Gusts: NA
Location:  18.47°N, 66.71°W
Report Text: TJBQ 242350Z 09008KT 10SM SCT012 BKN022 BKN025 25/23 A3005 RMK RWY08 ATIS N
Loading
Personal Weather Stations






























Interactive Weather Map New forecast layout! Learn more

10-Day Weather Forecast

Advertisements
Track Severe Weather on mobile